createdAt,value
2019-01-29T00:04:58.756Z,19.20
2019-01-29T00:10:00.967Z,15.73
2019-01-29T00:15:04.617Z,20.87
2019-01-29T00:20:07.555Z,20.70
2019-01-29T00:25:10.220Z,17.10
2019-01-29T00:30:13.213Z,17.03
2019-01-29T00:35:15.498Z,17.97
2019-01-29T00:40:18.473Z,20.93
2019-01-29T00:45:21.496Z,21.57
2019-01-29T00:50:23.840Z,23.67
2019-01-29T00:55:26.268Z,21.23
2019-01-29T01:00:28.588Z,22.83
2019-01-29T01:05:31.265Z,24.80
2019-01-29T01:10:34.361Z,20.13
2019-01-29T01:15:37.143Z,20.43
2019-01-29T01:20:39.961Z,16.87
2019-01-29T01:25:42.456Z,14.87
2019-01-29T01:30:44.652Z,17.57
2019-01-29T01:35:47.735Z,15.60
2019-01-29T01:40:50.478Z,15.07
2019-01-29T01:45:53.029Z,13.93
2019-01-29T01:50:55.605Z,11.40
2019-01-29T01:55:58.622Z,13.33
2019-01-29T02:01:01.630Z,14.73
2019-01-29T02:06:04.489Z,12.27
2019-01-29T02:11:06.783Z,10.10
2019-01-29T02:16:10.090Z,9.80
2019-01-29T02:21:12.463Z,7.63
2019-01-29T02:26:14.663Z,8.93
2019-01-29T02:31:17.596Z,9.90
2019-01-29T02:36:20.710Z,10.43
2019-01-29T02:41:23.445Z,9.40
2019-01-29T02:46:26.042Z,8.73
2019-01-29T02:51:28.400Z,7.90
2019-01-29T02:56:30.956Z,8.73
2019-01-29T03:01:33.313Z,7.57
2019-01-29T03:06:35.767Z,10.80
2019-01-29T03:11:38.067Z,9.07
2019-01-29T03:16:40.480Z,8.00
2019-01-29T03:21:42.703Z,7.83
2019-01-29T03:26:45.631Z,10.97
2019-01-29T03:31:49.037Z,10.60
2019-01-29T03:36:51.856Z,9.27
2019-01-29T03:41:54.154Z,10.53
2019-01-29T03:46:56.385Z,11.20
2019-01-29T03:51:59.309Z,13.40
2019-01-29T03:57:01.504Z,13.27
2019-01-29T04:02:04.047Z,13.70
2019-01-29T04:07:06.340Z,12.47
2019-01-29T04:12:08.859Z,11.93
2019-01-29T04:17:11.971Z,12.73
2019-01-29T04:22:14.396Z,14.33
2019-01-29T04:27:16.845Z,13.97
2019-01-29T04:32:19.150Z,17.43
2019-01-29T04:37:21.519Z,14.27
2019-01-29T04:42:23.739Z,15.83
2019-01-29T04:47:26.005Z,13.70
2019-01-29T04:52:28.361Z,14.73
2019-01-29T04:57:30.749Z,14.47
2019-01-29T05:02:33.052Z,12.73
2019-01-29T05:07:35.525Z,11.90
2019-01-29T05:12:37.876Z,16.30
2019-01-29T05:17:40.209Z,16.30
2019-01-29T05:22:42.499Z,13.93
2019-01-29T05:27:45.198Z,14.53
2019-01-29T05:32:48.115Z,13.27
2019-01-29T05:37:50.776Z,12.33
2019-01-29T05:42:53.306Z,12.97
2019-01-29T05:47:56.069Z,13.50
2019-01-29T05:52:58.496Z,14.77
2019-01-29T05:58:00.719Z,14.43
2019-01-29T06:03:03.446Z,11.90
2019-01-29T06:08:06.243Z,10.57
2019-01-29T06:13:08.478Z,11.20
2019-01-29T06:18:11.787Z,11.23
2019-01-29T06:23:14.350Z,12.43
2019-01-29T06:28:18.662Z,12.33
2019-01-29T06:33:21.613Z,12.33
2019-01-29T06:38:23.970Z,8.87
2019-01-29T06:43:28.118Z,11.50
2019-01-29T06:48:30.439Z,11.97
2019-01-29T06:53:32.680Z,12.13
2019-01-29T06:58:35.494Z,11.27
2019-01-29T07:03:37.827Z,9.67
2019-01-29T07:08:40.198Z,11.67
2019-01-29T07:13:42.507Z,10.87
2019-01-29T07:19:03.205Z,12.50
2019-01-29T07:24:05.901Z,12.87
2019-01-29T07:29:08.866Z,11.10
2019-01-29T07:34:11.879Z,11.67
2019-01-29T07:39:14.199Z,12.77
2019-01-29T07:44:16.536Z,18.57
2019-01-29T07:49:19.448Z,13.30
2019-01-29T07:54:22.122Z,15.43
2019-01-29T07:59:32.956Z,15.03
2019-01-29T08:04:30.180Z,18.73
2019-01-29T08:09:33.001Z,18.27
2019-01-29T08:14:35.684Z,21.23
2019-01-29T08:19:38.405Z,20.33
2019-01-29T08:24:42.202Z,21.93
2019-01-29T08:29:44.791Z,20.80
2019-01-29T08:34:47.384Z,18.43
2019-01-29T08:39:50.063Z,19.47
2019-01-29T08:44:52.775Z,21.53
2019-01-29T08:49:55.249Z,22.60
2019-01-29T08:54:57.784Z,23.17
2019-01-29T09:00:02.600Z,19.23
2019-01-29T09:05:07.539Z,15.00
2019-01-29T09:10:13.179Z,14.20
2019-01-29T09:15:16.063Z,18.83
2019-01-29T09:20:19.334Z,19.47
2019-01-29T09:25:22.927Z,15.03
2019-01-29T09:30:25.473Z,17.17
2019-01-29T09:35:27.721Z,17.73
2019-01-29T09:40:30.918Z,14.03
2019-01-29T09:45:33.384Z,18.93
2019-01-29T09:50:36.145Z,15.23
2019-01-29T09:55:38.985Z,16.97
2019-01-29T10:00:41.687Z,15.60
2019-01-29T10:05:43.980Z,14.87
2019-01-29T10:10:46.776Z,18.07
2019-01-29T10:15:49.129Z,15.77
2019-01-29T10:20:53.808Z,14.80
2019-01-29T10:25:56.494Z,14.67
2019-01-29T10:30:59.126Z,14.43
2019-01-29T10:36:01.573Z,14.60
2019-01-29T10:41:04.286Z,17.07
2019-01-29T10:46:06.978Z,20.67
2019-01-29T10:51:09.583Z,18.20
2019-01-29T10:56:16.207Z,12.70
2019-01-29T11:01:21.693Z,17.40
2019-01-29T11:06:24.699Z,15.27
2019-01-29T11:11:27.673Z,12.33
2019-01-29T11:16:30.733Z,11.67
2019-01-29T11:21:33.885Z,14.10
2019-01-29T11:26:36.422Z,19.13
2019-01-29T11:31:39.074Z,15.97
2019-01-29T11:36:42.053Z,18.30
2019-01-29T11:41:44.518Z,15.93
2019-01-29T11:46:47.314Z,13.40
2019-01-29T11:51:49.611Z,22.83
2019-01-29T11:56:52.750Z,20.60
2019-01-29T12:01:56.705Z,19.47
2019-01-29T12:06:59.258Z,24.23
2019-01-29T12:12:01.583Z,15.43
2019-01-29T12:17:03.903Z,12.80
2019-01-29T12:22:09.615Z,14.67
2019-01-29T12:27:12.048Z,12.00
2019-01-29T12:32:14.314Z,17.73
2019-01-29T12:37:23.441Z,9.80
2019-01-29T12:42:35.735Z,15.30
2019-01-29T12:47:39.942Z,12.67
2019-01-29T13:01:15.328Z,13.27
2019-01-29T13:06:11.420Z,18.97
2019-01-29T13:11:13.983Z,18.93
2019-01-29T13:16:16.355Z,13.57
2019-01-29T13:21:21.369Z,13.57
2019-01-29T13:26:29.936Z,10.73
2019-01-29T13:31:28.513Z,12.70
2019-01-29T13:36:31.223Z,11.13
2019-01-29T13:41:35.508Z,11.70
2019-01-29T13:46:37.732Z,12.60
2019-01-29T13:51:40.581Z,12.73
2019-01-29T13:56:43.448Z,8.20
2019-01-29T14:01:45.807Z,11.17
2019-01-29T14:06:48.420Z,8.87
2019-01-29T14:11:51.015Z,11.60
2019-01-29T14:16:53.891Z,14.33
2019-01-29T14:21:56.110Z,9.63
2019-01-29T14:26:58.976Z,11.77
2019-01-29T14:32:01.881Z,13.10
2019-01-29T14:37:04.385Z,16.37
2019-01-29T14:42:06.667Z,12.57
2019-01-29T14:47:09.346Z,10.20
2019-01-29T14:52:11.904Z,13.57
2019-01-29T14:57:14.625Z,15.27
2019-01-29T15:02:17.436Z,14.13
2019-01-29T15:07:19.956Z,15.70
2019-01-29T15:12:22.429Z,12.80
2019-01-29T15:17:50.423Z,10.03
2019-01-29T15:22:53.872Z,9.57
2019-01-29T15:27:56.724Z,12.20
2019-01-29T15:32:59.448Z,7.97
2019-01-29T15:38:02.290Z,14.67
2019-01-29T15:43:04.843Z,15.27
2019-01-29T15:48:07.282Z,14.07
2019-01-29T15:53:10.715Z,12.43
2019-01-29T15:58:13.809Z,17.33
2019-01-29T16:03:16.608Z,13.77
2019-01-29T16:08:18.946Z,16.50
2019-01-29T16:13:21.415Z,15.70
2019-01-29T16:18:23.860Z,16.20
2019-01-29T16:23:26.605Z,15.90
2019-01-29T16:28:29.378Z,17.63
2019-01-29T16:33:31.847Z,18.53
2019-01-29T16:38:34.462Z,19.83
2019-01-29T16:43:37.048Z,15.53
2019-01-29T16:48:39.846Z,14.73
2019-01-29T16:53:42.448Z,15.47
2019-01-29T16:58:45.044Z,20.10
2019-01-29T17:03:47.753Z,15.27
2019-01-29T17:08:50.219Z,17.30
2019-01-29T17:13:52.374Z,15.00
2019-01-29T17:18:54.918Z,15.43
2019-01-29T17:23:57.821Z,16.30
2019-01-29T17:29:00.157Z,15.97
2019-01-29T17:34:02.392Z,15.70
2019-01-29T17:39:07.478Z,19.67
2019-01-29T17:44:11.073Z,14.43
2019-01-29T17:49:13.967Z,22.37
2019-01-29T17:54:16.206Z,16.57
2019-01-29T17:59:18.725Z,17.27
2019-01-29T18:04:21.216Z,11.47
2019-01-29T18:09:23.610Z,15.67
2019-01-29T18:14:26.413Z,16.53
2019-01-29T18:19:28.758Z,17.27
2019-01-29T18:24:31.337Z,17.27
2019-01-29T18:29:34.169Z,22.60
2019-01-29T18:34:36.747Z,14.33
2019-01-29T18:39:39.467Z,17.73
2019-01-29T18:44:42.109Z,17.50
2019-01-29T18:49:44.690Z,13.60
2019-01-29T18:54:47.114Z,16.67
2019-01-29T18:59:49.677Z,17.83
2019-01-29T19:04:52.000Z,15.37
2019-01-29T19:09:54.854Z,14.80
2019-01-29T19:14:57.554Z,14.37
2019-01-29T19:20:00.522Z,11.37
2019-01-29T19:25:04.226Z,21.47
2019-01-29T19:30:14.688Z,14.00
2019-01-29T19:35:17.706Z,16.83
2019-01-29T19:40:20.488Z,19.10
2019-01-29T19:45:29.862Z,13.67
2019-01-29T19:50:32.529Z,15.57
2019-01-29T19:55:37.894Z,19.83
2019-01-29T20:00:41.907Z,15.70
2019-01-29T20:05:44.140Z,21.63
2019-01-29T20:10:46.477Z,27.10
2019-01-29T20:15:49.460Z,17.13
2019-01-29T20:20:52.534Z,19.30
2019-01-29T20:25:55.479Z,15.53
2019-01-29T20:30:57.961Z,20.40
2019-01-29T20:36:00.172Z,12.80
2019-01-29T20:41:03.004Z,12.20
2019-01-29T20:46:05.670Z,16.83
2019-01-29T20:51:08.455Z,19.53
2019-01-29T20:56:10.814Z,16.53
2019-01-29T21:01:13.714Z,13.20
2019-01-29T21:06:16.181Z,12.83
2019-01-29T21:11:19.061Z,15.80
2019-01-29T21:16:21.595Z,16.37
2019-01-29T21:21:24.203Z,15.57
2019-01-29T21:26:26.723Z,17.33
2019-01-29T21:31:29.028Z,16.50
2019-01-29T21:36:31.472Z,16.77
2019-01-29T21:41:34.272Z,13.90
2019-01-29T21:46:36.498Z,15.70
2019-01-29T21:51:38.791Z,18.70
2019-01-29T21:56:41.264Z,17.07
2019-01-29T22:01:43.468Z,12.60
2019-01-29T22:06:46.319Z,13.37
2019-01-29T22:11:48.914Z,13.93
2019-01-29T22:16:51.202Z,14.20
2019-01-29T22:21:53.503Z,19.50
2019-01-29T22:26:55.715Z,18.23
2019-01-29T22:31:58.887Z,14.93
2019-01-29T22:37:02.063Z,14.90
2019-01-29T22:42:04.494Z,17.23
2019-01-29T22:47:06.724Z,19.10
2019-01-29T22:52:09.533Z,13.93
2019-01-29T22:57:11.717Z,19.00
2019-01-29T23:02:14.583Z,12.77
2019-01-29T23:07:30.092Z,19.83
2019-01-29T23:12:32.589Z,16.23
2019-01-29T23:17:36.313Z,23.83
2019-01-29T23:22:38.629Z,19.30
2019-01-29T23:27:42.047Z,19.50
2019-01-29T23:32:44.640Z,20.83
2019-01-29T23:37:47.505Z,19.87
2019-01-29T23:42:49.997Z,22.60
2019-01-29T23:48:01.367Z,18.10
2019-01-29T23:53:03.908Z,23.17
2019-01-29T23:58:06.410Z,21.20
